Deatsville, Alabama
Current Conditions -  °F | °C
As of 2:35 AM on Friday 28 Nov 2014 (Local Time) from K1A9 Reporting Station
Clear Clear  
Wind Chill: 32°   Ceiling: Unl
Heat Index: 32°   Visibility: 10mi
Dew Point: 28°   Wind: 0mph
Humidity: 87%   Direction: NA
Pressure: 30.42"   Gusts: NA
Location:  32.61°N, 86.4°W
Report Text: K1A9 280835Z AUTO 00000KT 10SM CLR 00/M02 A3042 RMK AO2 T00001020
Loading
Personal Weather Stations






























Interactive Weather Map New forecast layout! Learn more

10-Day Weather Forecast

Advertisements
Track Severe Weather on mobile